sensor_id;sensor_type;location;lat;lon;timestamp;P1;durP1;ratioP1;P2;durP2;ratioP2
12328;SDS011;6230;52.390;10.256;2022-11-15T00:00:04;22.10;;;16.40;;
12328;SDS011;6230;52.390;10.256;2022-11-15T00:02:30;19.50;;;16.57;;
12328;SDS011;6230;52.390;10.256;2022-11-15T00:04:56;22.53;;;17.43;;
12328;SDS011;6230;52.390;10.256;2022-11-15T00:07:21;19.97;;;16.57;;
12328;SDS011;6230;52.390;10.256;2022-11-15T00:09:47;20.70;;;17.93;;
12328;SDS011;6230;52.390;10.256;2022-11-15T00:12:12;20.07;;;16.87;;
12328;SDS011;6230;52.390;10.256;2022-11-15T00:14:38;20.90;;;17.53;;
12328;SDS011;6230;52.390;10.256;2022-11-15T00:17:03;22.03;;;17.20;;
12328;SDS011;6230;52.390;10.256;2022-11-15T00:19:29;21.97;;;16.57;;
12328;SDS011;6230;52.390;10.256;2022-11-15T00:21:54;23.30;;;19.07;;
12328;SDS011;6230;52.390;10.256;2022-11-15T00:24:20;20.87;;;17.33;;
12328;SDS011;6230;52.390;10.256;2022-11-15T00:26:45;24.83;;;22.33;;
12328;SDS011;6230;52.390;10.256;2022-11-15T00:29:11;20.83;;;18.30;;
12328;SDS011;6230;52.390;10.256;2022-11-15T00:31:36;21.63;;;18.83;;
12328;SDS011;6230;52.390;10.256;2022-11-15T00:34:02;21.53;;;19.00;;
12328;SDS011;6230;52.390;10.256;2022-11-15T00:36:28;20.50;;;17.00;;
12328;SDS011;6230;52.390;10.256;2022-11-15T00:38:53;21.40;;;17.73;;
12328;SDS011;6230;52.390;10.256;2022-11-15T00:41:19;20.77;;;17.37;;
12328;SDS011;6230;52.390;10.256;2022-11-15T00:43:45;23.47;;;18.00;;
12328;SDS011;6230;52.390;10.256;2022-11-15T00:46:10;20.63;;;18.07;;
12328;SDS011;6230;52.390;10.256;2022-11-15T00:48:36;22.03;;;17.30;;
12328;SDS011;6230;52.390;10.256;2022-11-15T00:51:02;20.87;;;16.80;;
12328;SDS011;6230;52.390;10.256;2022-11-15T00:53:27;19.77;;;15.70;;
12328;SDS011;6230;52.390;10.256;2022-11-15T00:55:53;20.50;;;16.17;;
12328;SDS011;6230;52.390;10.256;2022-11-15T00:58:18;17.87;;;15.97;;
12328;SDS011;6230;52.390;10.256;2022-11-15T01:00:44;22.70;;;15.87;;
12328;SDS011;6230;52.390;10.256;2022-11-15T01:03:10;18.87;;;16.87;;
12328;SDS011;6230;52.390;10.256;2022-11-15T01:05:36;20.17;;;17.07;;
12328;SDS011;6230;52.390;10.256;2022-11-15T01:08:02;19.53;;;15.80;;
12328;SDS011;6230;52.390;10.256;2022-11-15T01:10:28;19.43;;;17.20;;
12328;SDS011;6230;52.390;10.256;2022-11-15T01:12:54;21.43;;;17.53;;
12328;SDS011;6230;52.390;10.256;2022-11-15T01:15:20;19.20;;;16.83;;
12328;SDS011;6230;52.390;10.256;2022-11-15T01:17:46;18.47;;;16.03;;
12328;SDS011;6230;52.390;10.256;2022-11-15T01:20:11;21.33;;;16.30;;
12328;SDS011;6230;52.390;10.256;2022-11-15T01:22:37;23.47;;;17.57;;
12328;SDS011;6230;52.390;10.256;2022-11-15T01:25:03;21.07;;;17.87;;
12328;SDS011;6230;52.390;10.256;2022-11-15T01:27:28;21.07;;;17.07;;
12328;SDS011;6230;52.390;10.256;2022-11-15T01:29:54;20.50;;;16.13;;
12328;SDS011;6230;52.390;10.256;2022-11-15T01:32:19;18.47;;;16.57;;
12328;SDS011;6230;52.390;10.256;2022-11-15T01:34:45;21.00;;;15.97;;
12328;SDS011;6230;52.390;10.256;2022-11-15T01:37:10;19.70;;;16.00;;
12328;SDS011;6230;52.390;10.256;2022-11-15T01:39:36;19.43;;;16.03;;
12328;SDS011;6230;52.390;10.256;2022-11-15T01:42:02;19.53;;;16.20;;
12328;SDS011;6230;52.390;10.256;2022-11-15T01:47:00;19.80;;;16.13;;
12328;SDS011;6230;52.390;10.256;2022-11-15T01:49:38;20.13;;;17.97;;
12328;SDS011;6230;52.390;10.256;2022-11-15T01:52:10;16.90;;;15.10;;
12328;SDS011;6230;52.390;10.256;2022-11-15T01:54:38;20.43;;;17.00;;
12328;SDS011;6230;52.390;10.256;2022-11-15T01:57:06;18.53;;;16.17;;
12328;SDS011;6230;52.390;10.256;2022-11-15T01:59:39;19.27;;;16.03;;
12328;SDS011;6230;52.390;10.256;2022-11-15T02:02:07;17.97;;;14.30;;
12328;SDS011;6230;52.390;10.256;2022-11-15T02:04:40;18.67;;;15.93;;
12328;SDS011;6230;52.390;10.256;2022-11-15T02:07:11;19.03;;;15.80;;
12328;SDS011;6230;52.390;10.256;2022-11-15T02:09:40;19.57;;;14.50;;
12328;SDS011;6230;52.390;10.256;2022-11-15T02:12:06;15.03;;;12.53;;
12328;SDS011;6230;52.390;10.256;2022-11-15T02:14:33;19.37;;;14.40;;
12328;SDS011;6230;52.390;10.256;2022-11-15T02:19:59;19.97;;;13.13;;
12328;SDS011;6230;52.390;10.256;2022-11-15T02:37:27;16.40;;;13.13;;
12328;SDS011;6230;52.390;10.256;2022-11-15T02:42:44;14.53;;;11.93;;
12328;SDS011;6230;52.390;10.256;2022-11-15T02:45:53;16.17;;;13.37;;
12328;SDS011;6230;52.390;10.256;2022-11-15T02:48:26;18.53;;;16.23;;
12328;SDS011;6230;52.390;10.256;2022-11-15T02:50:52;19.27;;;17.27;;
12328;SDS011;6230;52.390;10.256;2022-11-15T02:53:18;18.37;;;16.30;;
12328;SDS011;6230;52.390;10.256;2022-11-15T02:55:48;20.50;;;16.70;;
12328;SDS011;6230;52.390;10.256;2022-11-15T02:58:35;20.27;;;17.17;;
12328;SDS011;6230;52.390;10.256;2022-11-15T03:01:19;19.57;;;15.17;;
12328;SDS011;6230;52.390;10.256;2022-11-15T03:04:02;19.07;;;15.53;;
12328;SDS011;6230;52.390;10.256;2022-11-15T03:07:10;18.33;;;16.27;;
12328;SDS011;6230;52.390;10.256;2022-11-15T03:09:41;17.87;;;15.57;;
12328;SDS011;6230;52.390;10.256;2022-11-15T03:12:22;19.97;;;15.60;;
12328;SDS011;6230;52.390;10.256;2022-11-15T03:17:23;18.50;;;15.47;;
12328;SDS011;6230;52.390;10.256;2022-11-15T03:19:58;18.40;;;16.40;;
12328;SDS011;6230;52.390;10.256;2022-11-15T03:22:27;18.57;;;16.47;;
12328;SDS011;6230;52.390;10.256;2022-11-15T03:24:58;18.27;;;16.23;;
12328;SDS011;6230;52.390;10.256;2022-11-15T03:27:30;18.60;;;16.40;;
12328;SDS011;6230;52.390;10.256;2022-11-15T03:30:01;19.83;;;16.47;;
12328;SDS011;6230;52.390;10.256;2022-11-15T03:32:30;20.20;;;16.03;;
12328;SDS011;6230;52.390;10.256;2022-11-15T03:35:03;19.03;;;16.00;;
12328;SDS011;6230;52.390;10.256;2022-11-15T03:37:34;18.10;;;15.03;;
12328;SDS011;6230;52.390;10.256;2022-11-15T03:40:01;17.73;;;15.17;;
12328;SDS011;6230;52.390;10.256;2022-11-15T03:42:36;21.07;;;16.30;;
12328;SDS011;6230;52.390;10.256;2022-11-15T03:45:14;22.67;;;15.33;;
12328;SDS011;6230;52.390;10.256;2022-11-15T03:47:54;20.43;;;16.00;;
12328;SDS011;6230;52.390;10.256;2022-11-15T03:50:26;17.27;;;15.20;;
12328;SDS011;6230;52.390;10.256;2022-11-15T03:52:52;18.70;;;15.37;;
12328;SDS011;6230;52.390;10.256;2022-11-15T03:55:20;17.20;;;15.40;;
12328;SDS011;6230;52.390;10.256;2022-11-15T03:57:47;18.73;;;15.90;;
12328;SDS011;6230;52.390;10.256;2022-11-15T04:00:15;18.37;;;15.37;;
12328;SDS011;6230;52.390;10.256;2022-11-15T04:02:41;20.00;;;16.07;;
12328;SDS011;6230;52.390;10.256;2022-11-15T04:05:06;19.00;;;16.97;;
12328;SDS011;6230;52.390;10.256;2022-11-15T04:07:32;20.90;;;15.67;;
12328;SDS011;6230;52.390;10.256;2022-11-15T04:09:58;20.63;;;16.87;;
12328;SDS011;6230;52.390;10.256;2022-11-15T04:15:01;21.47;;;15.60;;
12328;SDS011;6230;52.390;10.256;2022-11-15T04:17:32;23.43;;;16.37;;
12328;SDS011;6230;52.390;10.256;2022-11-15T04:20:03;19.60;;;15.97;;
12328;SDS011;6230;52.390;10.256;2022-11-15T04:22:59;23.37;;;16.67;;
12328;SDS011;6230;52.390;10.256;2022-11-15T04:25:45;19.70;;;15.13;;
12328;SDS011;6230;52.390;10.256;2022-11-15T04:28:15;18.50;;;14.90;;
12328;SDS011;6230;52.390;10.256;2022-11-15T04:30:40;17.17;;;15.33;;
12328;SDS011;6230;52.390;10.256;2022-11-15T04:33:06;21.63;;;15.73;;
12328;SDS011;6230;52.390;10.256;2022-11-15T04:35:31;19.20;;;15.77;;
12328;SDS011;6230;52.390;10.256;2022-11-15T04:37:57;19.53;;;16.50;;
12328;SDS011;6230;52.390;10.256;2022-11-15T04:40:23;20.43;;;16.07;;
12328;SDS011;6230;52.390;10.256;2022-11-15T04:42:49;20.10;;;14.93;;
12328;SDS011;6230;52.390;10.256;2022-11-15T04:45:14;21.43;;;14.77;;
12328;SDS011;6230;52.390;10.256;2022-11-15T04:47:42;17.30;;;13.73;;
12328;SDS011;6230;52.390;10.256;2022-11-15T04:50:09;17.57;;;14.20;;
12328;SDS011;6230;52.390;10.256;2022-11-15T04:52:38;17.47;;;13.37;;
12328;SDS011;6230;52.390;10.256;2022-11-15T04:55:05;16.97;;;13.60;;
12328;SDS011;6230;52.390;10.256;2022-11-15T04:57:30;15.00;;;12.33;;
12328;SDS011;6230;52.390;10.256;2022-11-15T04:59:56;14.43;;;12.03;;
12328;SDS011;6230;52.390;10.256;2022-11-15T05:02:21;15.67;;;12.67;;
12328;SDS011;6230;52.390;10.256;2022-11-15T05:04:47;16.03;;;12.27;;
12328;SDS011;6230;52.390;10.256;2022-11-15T05:07:12;17.53;;;12.03;;
12328;SDS011;6230;52.390;10.256;2022-11-15T05:09:38;12.83;;;10.30;;
12328;SDS011;6230;52.390;10.256;2022-11-15T05:12:04;15.77;;;11.53;;
12328;SDS011;6230;52.390;10.256;2022-11-15T05:14:29;14.33;;;10.47;;
12328;SDS011;6230;52.390;10.256;2022-11-15T05:16:55;13.63;;;10.70;;
12328;SDS011;6230;52.390;10.256;2022-11-15T05:19:20;12.53;;;10.40;;
12328;SDS011;6230;52.390;10.256;2022-11-15T05:21:46;13.60;;;11.17;;
12328;SDS011;6230;52.390;10.256;2022-11-15T05:24:12;11.93;;;10.50;;
12328;SDS011;6230;52.390;10.256;2022-11-15T05:26:38;11.07;;;9.97;;
12328;SDS011;6230;52.390;10.256;2022-11-15T05:29:03;11.77;;;10.00;;
12328;SDS011;6230;52.390;10.256;2022-11-15T05:31:29;10.73;;;9.50;;
12328;SDS011;6230;52.390;10.256;2022-11-15T05:33:55;15.50;;;10.07;;
12328;SDS011;6230;52.390;10.256;2022-11-15T05:36:24;11.13;;;9.53;;
12328;SDS011;6230;52.390;10.256;2022-11-15T05:38:58;10.70;;;9.57;;
12328;SDS011;6230;52.390;10.256;2022-11-15T05:41:26;10.97;;;9.40;;
12328;SDS011;6230;52.390;10.256;2022-11-15T05:43:57;10.63;;;9.53;;
12328;SDS011;6230;52.390;10.256;2022-11-15T05:46:23;11.67;;;9.83;;
12328;SDS011;6230;52.390;10.256;2022-11-15T05:48:49;11.13;;;9.93;;
12328;SDS011;6230;52.390;10.256;2022-11-15T05:51:16;11.03;;;9.87;;
12328;SDS011;6230;52.390;10.256;2022-11-15T05:53:44;11.63;;;10.53;;
12328;SDS011;6230;52.390;10.256;2022-11-15T05:56:10;11.57;;;9.67;;
12328;SDS011;6230;52.390;10.256;2022-11-15T05:58:36;8.73;;;7.87;;
12328;SDS011;6230;52.390;10.256;2022-11-15T06:01:02;10.40;;;8.43;;
12328;SDS011;6230;52.390;10.256;2022-11-15T06:03:28;9.13;;;7.50;;
12328;SDS011;6230;52.390;10.256;2022-11-15T06:05:54;7.73;;;7.03;;
12328;SDS011;6230;52.390;10.256;2022-11-15T06:08:19;10.60;;;8.00;;
12328;SDS011;6230;52.390;10.256;2022-11-15T06:10:45;7.37;;;6.67;;
12328;SDS011;6230;52.390;10.256;2022-11-15T06:13:11;9.67;;;7.20;;
12328;SDS011;6230;52.390;10.256;2022-11-15T06:15:36;7.87;;;7.00;;
12328;SDS011;6230;52.390;10.256;2022-11-15T06:18:02;8.40;;;6.67;;
12328;SDS011;6230;52.390;10.256;2022-11-15T06:20:28;9.13;;;6.87;;
12328;SDS011;6230;52.390;10.256;2022-11-15T06:22:58;8.80;;;7.30;;
12328;SDS011;6230;52.390;10.256;2022-11-15T06:25:28;7.37;;;6.67;;
12328;SDS011;6230;52.390;10.256;2022-11-15T06:27:54;9.47;;;7.00;;
12328;SDS011;6230;52.390;10.256;2022-11-15T06:30:21;8.10;;;7.30;;
12328;SDS011;6230;52.390;10.256;2022-11-15T06:32:47;11.73;;;8.60;;
12328;SDS011;6230;52.390;10.256;2022-11-15T06:35:13;10.07;;;9.07;;
12328;SDS011;6230;52.390;10.256;2022-11-15T06:37:39;15.30;;;7.83;;
12328;SDS011;6230;52.390;10.256;2022-11-15T06:40:05;9.67;;;7.63;;
12328;SDS011;6230;52.390;10.256;2022-11-15T06:42:32;7.77;;;7.00;;
12328;SDS011;6230;52.390;10.256;2022-11-15T06:44:57;14.17;;;12.97;;
12328;SDS011;6230;52.390;10.256;2022-11-15T06:47:23;8.63;;;7.60;;
12328;SDS011;6230;52.390;10.256;2022-11-15T06:49:48;8.67;;;6.97;;
12328;SDS011;6230;52.390;10.256;2022-11-15T06:52:14;8.03;;;7.23;;
12328;SDS011;6230;52.390;10.256;2022-11-15T06:54:39;8.63;;;7.20;;
12328;SDS011;6230;52.390;10.256;2022-11-15T06:57:05;9.70;;;7.77;;
12328;SDS011;6230;52.390;10.256;2022-11-15T06:59:30;10.10;;;7.50;;
12328;SDS011;6230;52.390;10.256;2022-11-15T07:01:56;10.33;;;8.53;;
12328;SDS011;6230;52.390;10.256;2022-11-15T07:04:21;8.63;;;7.77;;
12328;SDS011;6230;52.390;10.256;2022-11-15T07:06:47;11.47;;;8.13;;
12328;SDS011;6230;52.390;10.256;2022-11-15T07:09:13;14.50;;;7.90;;
12328;SDS011;6230;52.390;10.256;2022-11-15T07:11:39;8.80;;;7.90;;
12328;SDS011;6230;52.390;10.256;2022-11-15T07:14:04;9.70;;;8.73;;
12328;SDS011;6230;52.390;10.256;2022-11-15T07:16:30;10.57;;;8.63;;
12328;SDS011;6230;52.390;10.256;2022-11-15T07:18:55;9.43;;;8.27;;
12328;SDS011;6230;52.390;10.256;2022-11-15T07:21:21;9.37;;;7.83;;
12328;SDS011;6230;52.390;10.256;2022-11-15T07:23:46;11.07;;;8.30;;
12328;SDS011;6230;52.390;10.256;2022-11-15T07:26:12;8.60;;;7.70;;
12328;SDS011;6230;52.390;10.256;2022-11-15T07:28:37;8.97;;;7.83;;
12328;SDS011;6230;52.390;10.256;2022-11-15T07:31:03;8.97;;;7.90;;
12328;SDS011;6230;52.390;10.256;2022-11-15T07:33:31;8.60;;;7.37;;
12328;SDS011;6230;52.390;10.256;2022-11-15T07:36:00;8.13;;;7.23;;
12328;SDS011;6230;52.390;10.256;2022-11-15T07:38:27;7.83;;;7.00;;
12328;SDS011;6230;52.390;10.256;2022-11-15T07:40:57;11.77;;;8.30;;
12328;SDS011;6230;52.390;10.256;2022-11-15T07:43:26;8.77;;;7.80;;
12328;SDS011;6230;52.390;10.256;2022-11-15T07:45:52;9.30;;;7.77;;
12328;SDS011;6230;52.390;10.256;2022-11-15T07:48:18;8.53;;;7.70;;
12328;SDS011;6230;52.390;10.256;2022-11-15T07:50:44;7.77;;;7.10;;
12328;SDS011;6230;52.390;10.256;2022-11-15T07:53:09;11.87;;;8.97;;
12328;SDS011;6230;52.390;10.256;2022-11-15T07:55:35;9.60;;;8.70;;
12328;SDS011;6230;52.390;10.256;2022-11-15T07:58:02;7.97;;;7.10;;
12328;SDS011;6230;52.390;10.256;2022-11-15T08:00:29;8.43;;;7.63;;
12328;SDS011;6230;52.390;10.256;2022-11-15T08:03:02;9.87;;;7.10;;
12328;SDS011;6230;52.390;10.256;2022-11-15T08:05:28;7.47;;;6.77;;
12328;SDS011;6230;52.390;10.256;2022-11-15T08:07:55;9.60;;;6.80;;
12328;SDS011;6230;52.390;10.256;2022-11-15T08:10:21;8.20;;;7.40;;
12328;SDS011;6230;52.390;10.256;2022-11-15T08:12:47;8.90;;;8.00;;
12328;SDS011;6230;52.390;10.256;2022-11-15T08:15:12;14.80;;;13.27;;
12328;SDS011;6230;52.390;10.256;2022-11-15T08:17:38;16.30;;;11.73;;
12328;SDS011;6230;52.390;10.256;2022-11-15T08:20:03;15.47;;;13.83;;
12328;SDS011;6230;52.390;10.256;2022-11-15T08:22:29;17.73;;;13.93;;
12328;SDS011;6230;52.390;10.256;2022-11-15T08:24:55;16.07;;;13.00;;
12328;SDS011;6230;52.390;10.256;2022-11-15T08:27:20;14.57;;;13.07;;
12328;SDS011;6230;52.390;10.256;2022-11-15T08:29:47;15.43;;;12.97;;
12328;SDS011;6230;52.390;10.256;2022-11-15T08:32:13;12.30;;;11.00;;
12328;SDS011;6230;52.390;10.256;2022-11-15T08:34:39;13.73;;;12.43;;
12328;SDS011;6230;52.390;10.256;2022-11-15T08:37:04;14.17;;;9.40;;
12328;SDS011;6230;52.390;10.256;2022-11-15T08:39:30;11.63;;;10.43;;
12328;SDS011;6230;52.390;10.256;2022-11-15T08:41:55;10.97;;;9.87;;
12328;SDS011;6230;52.390;10.256;2022-11-15T08:44:21;10.13;;;9.10;;
12328;SDS011;6230;52.390;10.256;2022-11-15T08:46:47;12.03;;;10.83;;
12328;SDS011;6230;52.390;10.256;2022-11-15T08:49:12;10.37;;;8.60;;
12328;SDS011;6230;52.390;10.256;2022-11-15T08:51:38;9.33;;;8.13;;
12328;SDS011;6230;52.390;10.256;2022-11-15T08:54:04;11.57;;;8.20;;
12328;SDS011;6230;52.390;10.256;2022-11-15T08:56:29;10.23;;;9.17;;
12328;SDS011;6230;52.390;10.256;2022-11-15T08:58:55;10.10;;;8.70;;
12328;SDS011;6230;52.390;10.256;2022-11-15T09:01:20;9.00;;;7.57;;
12328;SDS011;6230;52.390;10.256;2022-11-15T09:03:47;10.10;;;8.13;;
12328;SDS011;6230;52.390;10.256;2022-11-15T09:06:13;8.17;;;7.37;;
12328;SDS011;6230;52.390;10.256;2022-11-15T09:08:39;9.50;;;8.50;;
12328;SDS011;6230;52.390;10.256;2022-11-15T09:11:06;8.97;;;8.07;;
12328;SDS011;6230;52.390;10.256;2022-11-15T09:13:33;9.73;;;8.37;;
12328;SDS011;6230;52.390;10.256;2022-11-15T09:15:59;12.80;;;7.93;;
12328;SDS011;6230;52.390;10.256;2022-11-15T09:18:25;9.63;;;8.63;;
12328;SDS011;6230;52.390;10.256;2022-11-15T09:20:51;9.47;;;8.47;;
12328;SDS011;6230;52.390;10.256;2022-11-15T09:23:16;9.43;;;8.53;;
12328;SDS011;6230;52.390;10.256;2022-11-15T09:25:42;9.90;;;9.00;;
12328;SDS011;6230;52.390;10.256;2022-11-15T09:28:07;13.00;;;9.53;;
12328;SDS011;6230;52.390;10.256;2022-11-15T09:30:33;8.73;;;7.93;;
12328;SDS011;6230;52.390;10.256;2022-11-15T09:33:05;8.97;;;8.07;;
12328;SDS011;6230;52.390;10.256;2022-11-15T09:35:32;8.17;;;7.30;;
12328;SDS011;6230;52.390;10.256;2022-11-15T09:37:58;8.33;;;7.53;;
12328;SDS011;6230;52.390;10.256;2022-11-15T09:40:23;8.87;;;7.97;;
12328;SDS011;6230;52.390;10.256;2022-11-15T09:48:35;9.50;;;7.07;;
12328;SDS011;6230;52.390;10.256;2022-11-15T09:51:13;8.17;;;7.37;;
12328;SDS011;6230;52.390;10.256;2022-11-15T09:56:23;6.50;;;5.80;;
12328;SDS011;6230;52.390;10.256;2022-11-15T09:59:16;6.93;;;5.67;;
12328;SDS011;6230;52.390;10.256;2022-11-15T10:01:48;6.03;;;5.53;;
12328;SDS011;6230;52.390;10.256;2022-11-15T10:04:22;9.47;;;7.83;;
12328;SDS011;6230;52.390;10.256;2022-11-15T10:07:00;8.70;;;7.80;;
12328;SDS011;6230;52.390;10.256;2022-11-15T10:09:50;7.47;;;6.60;;
12328;SDS011;6230;52.390;10.256;2022-11-15T10:12:20;5.55;;;4.93;;
12328;SDS011;6230;52.390;10.256;2022-11-15T10:14:45;7.18;;;5.97;;
12328;SDS011;6230;52.390;10.256;2022-11-15T10:17:23;7.60;;;6.72;;
12328;SDS011;6230;52.390;10.256;2022-11-15T10:22:53;8.05;;;7.28;;
12328;SDS011;6230;52.390;10.256;2022-11-15T10:25:27;6.38;;;5.78;;
12328;SDS011;6230;52.390;10.256;2022-11-15T10:27:56;6.32;;;4.82;;
12328;SDS011;6230;52.390;10.256;2022-11-15T10:30:45;5.60;;;5.05;;
12328;SDS011;6230;52.390;10.256;2022-11-15T10:36:13;5.03;;;4.18;;
12328;SDS011;6230;52.390;10.256;2022-11-15T10:38:53;6.35;;;4.30;;
12328;SDS011;6230;52.390;10.256;2022-11-15T10:41:32;6.90;;;5.78;;
12328;SDS011;6230;52.390;10.256;2022-11-15T10:47:03;6.72;;;5.53;;
12328;SDS011;6230;52.390;10.256;2022-11-15T10:49:32;7.40;;;6.05;;
12328;SDS011;6230;52.390;10.256;2022-11-15T10:52:04;4.90;;;4.50;;
12328;SDS011;6230;52.390;10.256;2022-11-15T10:55:04;6.10;;;5.57;;
12328;SDS011;6230;52.390;10.256;2022-11-15T10:57:37;6.00;;;5.47;;
12328;SDS011;6230;52.390;10.256;2022-11-15T11:00:06;5.75;;;5.25;;
12328;SDS011;6230;52.390;10.256;2022-11-15T11:08:25;4.25;;;3.65;;
12328;SDS011;6230;52.390;10.256;2022-11-15T11:10:55;5.50;;;3.28;;
12328;SDS011;6230;52.390;10.256;2022-11-15T11:13:23;3.83;;;3.25;;
12328;SDS011;6230;52.390;10.256;2022-11-15T11:15:55;3.55;;;3.25;;
12328;SDS011;6230;52.390;10.256;2022-11-15T11:18:34;4.60;;;3.42;;
12328;SDS011;6230;52.390;10.256;2022-11-15T11:21:26;4.35;;;3.95;;
12328;SDS011;6230;52.390;10.256;2022-11-15T11:24:25;4.03;;;3.63;;
12328;SDS011;6230;52.390;10.256;2022-11-15T11:27:13;4.40;;;4.10;;
12328;SDS011;6230;52.390;10.256;2022-11-15T11:32:42;6.72;;;6.10;;
12328;SDS011;6230;52.390;10.256;2022-11-15T11:35:28;4.68;;;4.22;;
12328;SDS011;6230;52.390;10.256;2022-11-15T11:46:51;3.78;;;3.45;;
12328;SDS011;6230;52.390;10.256;2022-11-15T11:49:24;4.15;;;3.40;;
12328;SDS011;6230;52.390;10.256;2022-11-15T11:51:56;3.50;;;3.20;;
12328;SDS011;6230;52.390;10.256;2022-11-15T11:57:30;3.65;;;3.15;;
12328;SDS011;6230;52.390;10.256;2022-11-15T12:00:03;3.53;;;3.20;;
12328;SDS011;6230;52.390;10.256;2022-11-15T12:02:38;4.72;;;4.15;;
12328;SDS011;6230;52.390;10.256;2022-11-15T12:05:12;3.60;;;3.28;;
12328;SDS011;6230;52.390;10.256;2022-11-15T12:07:47;3.25;;;2.88;;
12328;SDS011;6230;52.390;10.256;2022-11-15T12:10:19;5.57;;;3.80;;
12328;SDS011;6230;52.390;10.256;2022-11-15T12:15:44;4.90;;;4.20;;
12328;SDS011;6230;52.390;10.256;2022-11-15T12:18:22;6.35;;;4.50;;
12328;SDS011;6230;52.390;10.256;2022-11-15T12:20:52;5.40;;;4.95;;
12328;SDS011;6230;52.390;10.256;2022-11-15T12:23:28;4.45;;;3.80;;
12328;SDS011;6230;52.390;10.256;2022-11-15T12:26:16;4.05;;;3.75;;
12328;SDS011;6230;52.390;10.256;2022-11-15T12:28:49;5.13;;;4.57;;
12328;SDS011;6230;52.390;10.256;2022-11-15T12:34:00;5.15;;;4.75;;
12328;SDS011;6230;52.390;10.256;2022-11-15T12:36:36;6.55;;;6.03;;
12328;SDS011;6230;52.390;10.256;2022-11-15T12:39:08;6.33;;;5.83;;
12328;SDS011;6230;52.390;10.256;2022-11-15T12:41:39;6.63;;;5.78;;
12328;SDS011;6230;52.390;10.256;2022-11-15T13:02:26;6.77;;;6.27;;
12328;SDS011;6230;52.390;10.256;2022-11-15T13:17:42;6.55;;;6.10;;
12328;SDS011;6230;52.390;10.256;2022-11-15T13:22:41;7.57;;;6.88;;
12328;SDS011;6230;52.390;10.256;2022-11-15T13:33:48;7.38;;;6.65;;
12328;SDS011;6230;52.390;10.256;2022-11-15T13:36:21;7.43;;;6.68;;
12328;SDS011;6230;52.390;10.256;2022-11-15T13:38:56;7.73;;;7.03;;
12328;SDS011;6230;52.390;10.256;2022-11-15T13:41:25;9.98;;;7.22;;
12328;SDS011;6230;52.390;10.256;2022-11-15T13:43:55;7.43;;;6.73;;
12328;SDS011;6230;52.390;10.256;2022-11-15T13:46:22;6.60;;;6.00;;
12328;SDS011;6230;52.390;10.256;2022-11-15T13:48:59;8.70;;;7.93;;
12328;SDS011;6230;52.390;10.256;2022-11-15T13:54:20;6.37;;;5.77;;
12328;SDS011;6230;52.390;10.256;2022-11-15T13:56:56;6.40;;;5.90;;
12328;SDS011;6230;52.390;10.256;2022-11-15T13:59:45;5.93;;;4.93;;
12328;SDS011;6230;52.390;10.256;2022-11-15T14:02:19;5.70;;;5.20;;
12328;SDS011;6230;52.390;10.256;2022-11-15T14:04:54;7.57;;;6.55;;
12328;SDS011;6230;52.390;10.256;2022-11-15T14:07:22;6.55;;;6.00;;
12328;SDS011;6230;52.390;10.256;2022-11-15T14:09:51;5.63;;;5.15;;
12328;SDS011;6230;52.390;10.256;2022-11-15T14:12:25;8.67;;;5.97;;
12328;SDS011;6230;52.390;10.256;2022-11-15T14:14:59;5.90;;;5.40;;
12328;SDS011;6230;52.390;10.256;2022-11-15T14:19:54;7.05;;;5.63;;
12328;SDS011;6230;52.390;10.256;2022-11-15T14:22:25;9.23;;;5.90;;
12328;SDS011;6230;52.390;10.256;2022-11-15T14:27:43;7.47;;;6.70;;
12328;SDS011;6230;52.390;10.256;2022-11-15T14:30:29;7.63;;;5.53;;
12328;SDS011;6230;52.390;10.256;2022-11-15T14:32:54;6.60;;;5.88;;
12328;SDS011;6230;52.390;10.256;2022-11-15T14:35:20;5.97;;;5.43;;
12328;SDS011;6230;52.390;10.256;2022-11-15T14:37:47;10.00;;;5.93;;
12328;SDS011;6230;52.390;10.256;2022-11-15T14:40:14;6.80;;;5.60;;
12328;SDS011;6230;52.390;10.256;2022-11-15T14:42:42;6.60;;;5.50;;
12328;SDS011;6230;52.390;10.256;2022-11-15T14:45:13;6.20;;;5.05;;
12328;SDS011;6230;52.390;10.256;2022-11-15T14:47:48;9.98;;;5.82;;
12328;SDS011;6230;52.390;10.256;2022-11-15T14:50:15;6.57;;;5.30;;
12328;SDS011;6230;52.390;10.256;2022-11-15T14:52:42;7.90;;;6.13;;
12328;SDS011;6230;52.390;10.256;2022-11-15T14:55:13;6.23;;;5.63;;
12328;SDS011;6230;52.390;10.256;2022-11-15T14:57:43;8.07;;;5.32;;
12328;SDS011;6230;52.390;10.256;2022-11-15T15:00:10;8.23;;;5.30;;
12328;SDS011;6230;52.390;10.256;2022-11-15T15:02:36;6.23;;;5.50;;
12328;SDS011;6230;52.390;10.256;2022-11-15T15:05:10;6.53;;;5.20;;
12328;SDS011;6230;52.390;10.256;2022-11-15T15:07:39;6.53;;;5.80;;
12328;SDS011;6230;52.390;10.256;2022-11-15T15:10:05;6.45;;;5.68;;
12328;SDS011;6230;52.390;10.256;2022-11-15T15:12:30;6.17;;;5.57;;
12328;SDS011;6230;52.390;10.256;2022-11-15T15:14:56;6.47;;;5.75;;
12328;SDS011;6230;52.390;10.256;2022-11-15T15:17:21;7.00;;;5.80;;
12328;SDS011;6230;52.390;10.256;2022-11-15T15:19:47;7.77;;;5.53;;
12328;SDS011;6230;52.390;10.256;2022-11-15T15:22:14;9.77;;;6.60;;
12328;SDS011;6230;52.390;10.256;2022-11-15T15:24:41;8.03;;;5.90;;
12328;SDS011;6230;52.390;10.256;2022-11-15T15:27:08;6.87;;;5.90;;
12328;SDS011;6230;52.390;10.256;2022-11-15T15:29:33;9.20;;;5.50;;
12328;SDS011;6230;52.390;10.256;2022-11-15T15:31:59;6.23;;;5.33;;
12328;SDS011;6230;52.390;10.256;2022-11-15T15:34:24;6.47;;;5.87;;
12328;SDS011;6230;52.390;10.256;2022-11-15T15:37:05;6.97;;;6.27;;
12328;SDS011;6230;52.390;10.256;2022-11-15T15:39:49;8.40;;;7.27;;
12328;SDS011;6230;52.390;10.256;2022-11-15T15:42:19;12.27;;;9.37;;
12328;SDS011;6230;52.390;10.256;2022-11-15T15:44:46;6.87;;;6.00;;
12328;SDS011;6230;52.390;10.256;2022-11-15T15:47:13;24.03;;;17.10;;
12328;SDS011;6230;52.390;10.256;2022-11-15T15:49:43;15.77;;;10.80;;
12328;SDS011;6230;52.390;10.256;2022-11-15T15:52:09;11.17;;;8.90;;
12328;SDS011;6230;52.390;10.256;2022-11-15T15:54:34;23.00;;;20.50;;
12328;SDS011;6230;52.390;10.256;2022-11-15T15:57:00;19.03;;;15.37;;
12328;SDS011;6230;52.390;10.256;2022-11-15T15:59:26;12.07;;;10.70;;
12328;SDS011;6230;52.390;10.256;2022-11-15T16:01:51;9.03;;;8.13;;
12328;SDS011;6230;52.390;10.256;2022-11-15T16:04:17;9.17;;;8.27;;
12328;SDS011;6230;52.390;10.256;2022-11-15T16:06:42;10.27;;;7.50;;
12328;SDS011;6230;52.390;10.256;2022-11-15T16:09:18;9.70;;;7.67;;
12328;SDS011;6230;52.390;10.256;2022-11-15T16:12:07;9.50;;;8.50;;
12328;SDS011;6230;52.390;10.256;2022-11-15T16:14:33;10.50;;;7.67;;
12328;SDS011;6230;52.390;10.256;2022-11-15T16:16:58;8.27;;;7.47;;
12328;SDS011;6230;52.390;10.256;2022-11-15T16:19:24;10.30;;;9.00;;
12328;SDS011;6230;52.390;10.256;2022-11-15T16:21:49;12.07;;;8.60;;
12328;SDS011;6230;52.390;10.256;2022-11-15T16:24:16;8.17;;;6.97;;
12328;SDS011;6230;52.390;10.256;2022-11-15T16:26:42;7.87;;;7.17;;
12328;SDS011;6230;52.390;10.256;2022-11-15T16:29:09;9.90;;;7.57;;
12328;SDS011;6230;52.390;10.256;2022-11-15T16:31:35;8.00;;;7.20;;
12328;SDS011;6230;52.390;10.256;2022-11-15T16:34:01;11.87;;;6.93;;
12328;SDS011;6230;52.390;10.256;2022-11-15T16:36:26;21.77;;;16.43;;
12328;SDS011;6230;52.390;10.256;2022-11-15T16:38:55;8.33;;;7.43;;
12328;SDS011;6230;52.390;10.256;2022-11-15T16:41:20;9.67;;;8.07;;
12328;SDS011;6230;52.390;10.256;2022-11-15T16:43:46;8.80;;;7.43;;
12328;SDS011;6230;52.390;10.256;2022-11-15T16:48:44;9.07;;;7.37;;
12328;SDS011;6230;52.390;10.256;2022-11-15T16:51:10;13.37;;;12.07;;